Terminal Aerodrome Forecast
Issued by NWS Sterling, VA

Current Version | Previous Version | Text Only | Print | Product List | Glossary Off
Versions: 1 2 3 4 5 6 7 8 9 10 11 12

000
FTUS41 KLWX 170500
TAFMRB
TAF
KMRB 170535Z 1706/1806 VRB03KT P6SM FEW200
     FM170800 VRB03KT 5SM BR FEW200
     FM171300 00000KT P6SM FEW050 SCT200
     FM171500 VRB03KT P6SM SCT050=

USA.gov is the U.S. government's official web portal to all federal, state and local government web resources and services.